Time;durP1;ratioP1;P1;durP2;ratioP2;P2;SDS_P1;SDS_P2;PMS_P1;PMS_P2;Temp;Humidity;BMP_temperature;BMP_pressure;BME280_temperature;BME280_humidity;BME280_pressure;Samples;Min_cycle;Max_cycle;Signal;HPM_P1;HPM_P2
2021/08/17 00:00:35;;;;;;;17.48;4.85;;;13.50;99.90;;;;;;4987583;28;20042;-65
2021/08/17 00:03:02;;;;;;;19.52;4.68;;;13.40;99.90;;;;;;4982312;28;20726;-65
2021/08/17 00:05:27;;;;;;;16.30;4.68;;;13.40;99.90;;;;;;4987106;28;20121;-65
2021/08/17 00:07:53;;;;;;;18.70;4.32;;;13.40;99.90;;;;;;4986581;28;20044;-65
2021/08/17 00:10:19;;;;;;;18.77;4.15;;;13.40;99.90;;;;;;4984535;28;20038;-65
2021/08/17 00:12:44;;;;;;;16.08;4.20;;;13.40;99.90;;;;;;4983068;28;20656;-65
2021/08/17 00:15:11;;;;;;;22.05;4.65;;;13.40;99.90;;;;;;4990719;28;20488;-65
2021/08/17 00:17:36;;;;;;;12.57;3.92;;;13.30;99.90;;;;;;4986234;28;20045;-65
2021/08/17 00:20:03;;;;;;;21.02;3.92;;;13.30;99.90;;;;;;4981594;28;20027;-65
2021/08/17 00:22:29;;;;;;;13.68;4.55;;;13.40;99.90;;;;;;4983224;28;20049;-65
2021/08/17 00:24:55;;;;;;;18.08;4.93;;;13.30;99.90;;;;;;4982687;28;20042;-65
2021/08/17 00:27:20;;;;;;;16.27;4.05;;;13.30;99.90;;;;;;4984896;28;20053;-65
2021/08/17 00:29:47;;;;;;;13.73;3.83;;;13.30;99.90;;;;;;4986273;28;20475;-65
2021/08/17 00:32:13;;;;;;;18.83;5.13;;;13.20;99.90;;;;;;4990774;28;20435;-64
2021/08/17 00:34:39;;;;;;;14.73;3.38;;;13.20;99.90;;;;;;4984497;28;20034;-65
2021/08/17 00:37:04;;;;;;;15.80;4.55;;;13.30;99.90;;;;;;4988964;28;20034;-65
2021/08/17 00:39:31;;;;;;;16.27;4.35;;;13.30;99.90;;;;;;4990274;28;20038;-65
2021/08/17 00:41:58;;;;;;;14.02;3.85;;;13.30;99.90;;;;;;4981529;28;20049;-65
2021/08/17 00:44:28;;;;;;;17.02;4.05;;;13.30;99.90;;;;;;4980826;28;20046;-65
2021/08/17 00:46:56;;;;;;;10.75;3.67;;;13.20;99.90;;;;;;4980190;28;20045;-65
2021/08/17 00:49:22;;;;;;;14.95;3.70;;;13.20;99.90;;;;;;4978051;28;20383;-64
2021/08/17 00:51:52;;;;;;;15.88;3.67;;;13.20;99.90;;;;;;4986915;28;20044;-64
2021/08/17 00:54:20;;;;;;;14.48;3.72;;;13.10;99.90;;;;;;4986670;28;20038;-65
2021/08/17 00:56:47;;;;;;;16.02;4.13;;;13.10;99.90;;;;;;4982624;28;20046;-65
2021/08/17 00:59:13;;;;;;;13.27;3.53;;;13.10;99.90;;;;;;4984090;28;20038;-65
2021/08/17 01:01:39;;;;;;;15.27;3.67;;;13.10;99.90;;;;;;4987455;28;20088;-65
2021/08/17 01:04:07;;;;;;;11.35;3.40;;;13.10;99.90;;;;;;4978852;28;20485;-65
2021/08/17 01:06:32;;;;;;;14.57;3.97;;;13.10;99.90;;;;;;4982358;28;20072;-65
2021/08/17 01:08:58;;;;;;;13.88;4.22;;;13.10;99.90;;;;;;4978427;28;20034;-65
2021/08/17 01:11:24;;;;;;;19.33;4.13;;;13.00;99.90;;;;;;5005488;28;20028;-65
2021/08/17 01:13:50;;;;;;;17.38;3.85;;;13.00;99.90;;;;;;4987750;28;20039;-64
2021/08/17 01:16:16;;;;;;;11.85;4.30;;;13.00;99.90;;;;;;4989124;28;20056;-65
2021/08/17 01:18:41;;;;;;;14.55;3.67;;;13.00;99.90;;;;;;4977312;28;20661;-64
2021/08/17 01:21:08;;;;;;;10.00;3.53;;;13.00;99.90;;;;;;4978653;28;20042;-65
2021/08/17 01:23:35;;;;;;;11.70;3.30;;;13.00;99.90;;;;;;4973121;28;20069;-65
2021/08/17 01:26:00;;;;;;;13.82;3.33;;;13.00;99.90;;;;;;4992873;28;20089;-65
2021/08/17 01:28:26;;;;;;;14.30;3.40;;;13.10;99.90;;;;;;4986689;28;20057;-64
2021/08/17 01:31:04;;;;;;;11.68;3.60;;;13.10;99.90;;;;;;4989063;28;20073;-64
2021/08/17 01:33:29;;;;;;;11.07;3.05;;;13.10;99.90;;;;;;4980824;28;20089;-64
2021/08/17 01:35:56;;;;;;;11.55;3.40;;;13.10;99.90;;;;;;4984180;28;20469;-64
2021/08/17 01:38:22;;;;;;;13.40;3.88;;;13.10;99.90;;;;;;4985334;28;20061;-64
2021/08/17 01:40:48;;;;;;;10.95;3.17;;;13.00;99.90;;;;;;4987509;28;20673;-64
2021/08/17 01:43:15;;;;;;;9.80;3.10;;;13.00;99.90;;;;;;4983769;28;20042;-64
2021/08/17 01:45:41;;;;;;;12.35;3.47;;;13.00;99.90;;;;;;4988898;28;20042;-64
2021/08/17 01:48:10;;;;;;;9.98;3.03;;;12.90;99.90;;;;;;4982999;28;20051;-64
2021/08/17 01:50:36;;;;;;;14.00;3.90;;;12.90;99.90;;;;;;4977580;28;20042;-64
2021/08/17 01:53:02;;;;;;;10.23;3.30;;;12.90;99.90;;;;;;4984909;28;20038;-64
2021/08/17 01:55:27;;;;;;;15.50;3.83;;;12.90;99.90;;;;;;4989716;28;20069;-64
2021/08/17 01:57:53;;;;;;;10.50;3.25;;;12.80;99.90;;;;;;4980592;28;20040;-64
2021/08/17 02:00:18;;;;;;;7.57;2.63;;;12.90;99.90;;;;;;4993579;28;20072;-64
2021/08/17 02:02:44;;;;;;;12.73;3.20;;;12.90;99.90;;;;;;4972847;28;20046;-64
2021/08/17 02:05:10;;;;;;;11.00;2.53;;;12.90;99.90;;;;;;4987666;28;20036;-64
2021/08/17 02:07:36;;;;;;;11.25;2.80;;;12.90;99.90;;;;;;4979509;28;20050;-64
2021/08/17 02:10:04;;;;;;;13.70;3.30;;;12.90;99.90;;;;;;4987865;28;20038;-64
2021/08/17 02:12:30;;;;;;;12.50;3.58;;;13.00;99.90;;;;;;4990788;28;20032;-65
2021/08/17 02:14:55;;;;;;;12.27;2.90;;;13.00;99.90;;;;;;4986893;28;20576;-66
2021/08/17 02:17:21;;;;;;;10.52;2.83;;;13.00;99.90;;;;;;4983572;28;20080;-64
2021/08/17 02:19:47;;;;;;;12.00;2.58;;;13.00;99.90;;;;;;4985050;28;20038;-64
2021/08/17 02:22:12;;;;;;;11.65;2.70;;;13.00;99.90;;;;;;4984830;28;20066;-64
2021/08/17 02:24:38;;;;;;;14.93;3.20;;;13.00;99.90;;;;;;4980359;28;20046;-64
2021/08/17 02:27:04;;;;;;;10.85;3.13;;;13.10;99.90;;;;;;4974456;28;20500;-65
2021/08/17 02:29:30;;;;;;;9.68;3.38;;;13.00;99.90;;;;;;4981577;28;20061;-64
2021/08/17 02:31:55;;;;;;;12.77;3.65;;;13.00;99.90;;;;;;4986610;28;20088;-64
2021/08/17 02:34:21;;;;;;;12.82;3.40;;;13.00;99.90;;;;;;5003315;28;20050;-64
2021/08/17 02:36:47;;;;;;;12.50;3.42;;;13.00;99.90;;;;;;4985847;28;20105;-64
2021/08/17 02:39:12;;;;;;;9.38;3.15;;;13.00;99.90;;;;;;4982242;28;20046;-64
2021/08/17 02:41:38;;;;;;;11.95;3.00;;;13.00;99.90;;;;;;4978273;28;20038;-64
2021/08/17 02:44:04;;;;;;;15.45;3.17;;;13.00;99.90;;;;;;4980411;28;20066;-64
2021/08/17 02:46:30;;;;;;;11.35;2.97;;;13.10;99.90;;;;;;4973200;28;20674;-64
2021/08/17 02:48:55;;;;;;;11.10;3.28;;;13.00;99.90;;;;;;4987291;28;20043;-64
2021/08/17 02:51:21;;;;;;;12.75;3.00;;;13.00;99.90;;;;;;4983381;28;20039;-64
2021/08/17 02:53:48;;;;;;;15.50;2.90;;;13.00;99.90;;;;;;4973699;28;20046;-64
2021/08/17 02:56:14;;;;;;;11.18;2.90;;;13.00;99.90;;;;;;4987201;28;20038;-65
2021/08/17 02:58:39;;;;;;;13.95;3.35;;;13.00;99.90;;;;;;4980806;28;20038;-65
2021/08/17 03:01:05;;;;;;;8.07;2.80;;;13.00;99.90;;;;;;4977865;28;20039;-64
2021/08/17 03:03:31;;;;;;;15.10;3.05;;;13.00;99.90;;;;;;4976159;28;20110;-64
2021/08/17 03:05:57;;;;;;;17.58;2.70;;;13.10;99.90;;;;;;4982823;28;20454;-64
2021/08/17 03:08:22;;;;;;;10.00;2.65;;;13.10;99.90;;;;;;4984284;28;20026;-64
2021/08/17 03:10:48;;;;;;;11.05;2.50;;;13.10;99.90;;;;;;4970559;28;20104;-64
2021/08/17 03:13:14;;;;;;;9.45;2.47;;;13.10;99.90;;;;;;4981269;28;20655;-64
2021/08/17 03:15:39;;;;;;;8.32;2.75;;;13.20;99.90;;;;;;4994298;28;20043;-65
2021/08/17 03:18:07;;;;;;;7.93;2.67;;;13.10;99.90;;;;;;4975423;28;20116;-64
2021/08/17 03:20:35;;;;;;;12.70;2.53;;;13.20;99.90;;;;;;4981962;28;20054;-64
2021/08/17 03:23:04;;;;;;;12.13;2.55;;;13.10;99.90;;;;;;4984173;28;20117;-64
2021/08/17 03:25:29;;;;;;;7.80;1.98;;;13.10;99.90;;;;;;4986482;28;20111;-64
2021/08/17 03:27:56;;;;;;;10.30;2.40;;;13.00;99.90;;;;;;4982790;28;20479;-64
2021/08/17 03:30:23;;;;;;;7.95;2.00;;;13.00;99.90;;;;;;4979605;28;20457;-64
2021/08/17 03:32:49;;;;;;;7.90;2.63;;;13.00;99.90;;;;;;4978532;28;20062;-64
2021/08/17 03:35:17;;;;;;;15.40;2.50;;;13.00;99.90;;;;;;4976406;28;20073;-64
2021/08/17 03:37:43;;;;;;;8.00;2.05;;;13.00;99.90;;;;;;4973569;28;20039;-64
2021/08/17 03:40:12;;;;;;;10.00;2.35;;;13.00;99.90;;;;;;4981343;28;20035;-64
2021/08/17 03:42:38;;;;;;;9.48;2.40;;;13.00;99.90;;;;;;4975417;28;20034;-65
2021/08/17 03:45:09;;;;;;;8.18;2.35;;;13.00;99.90;;;;;;4978689;28;20061;-64
2021/08/17 03:47:37;;;;;;;11.90;2.30;;;13.00;99.90;;;;;;4978662;28;20137;-64
2021/08/17 03:50:09;;;;;;;11.93;2.40;;;12.90;99.90;;;;;;4987058;28;20114;-64
2021/08/17 03:52:35;;;;;;;10.88;2.70;;;12.90;99.90;;;;;;4985641;28;20062;-64
2021/08/17 03:55:01;;;;;;;9.18;2.28;;;12.90;99.90;;;;;;4987349;28;20123;-64
2021/08/17 03:57:27;;;;;;;6.05;2.10;;;12.90;99.90;;;;;;4985427;28;20045;-64
2021/08/17 03:59:52;;;;;;;9.77;2.45;;;12.90;99.90;;;;;;4975836;28;20049;-64
2021/08/17 04:02:18;;;;;;;9.95;2.10;;;12.90;99.90;;;;;;4981719;28;20038;-64
2021/08/17 04:04:45;;;;;;;9.10;2.45;;;12.90;99.90;;;;;;4984106;28;20637;-64
2021/08/17 04:07:12;;;;;;;12.15;2.50;;;12.90;99.90;;;;;;4981236;28;20425;-64
2021/08/17 04:09:38;;;;;;;10.82;2.30;;;12.90;99.90;;;;;;4987999;28;20049;-64
2021/08/17 04:12:04;;;;;;;9.13;1.95;;;12.80;99.90;;;;;;4987188;28;20048;-64
2021/08/17 04:14:29;;;;;;;8.57;2.10;;;12.80;99.90;;;;;;4980766;28;20503;-64
2021/08/17 04:16:56;;;;;;;9.88;2.05;;;12.80;99.90;;;;;;4982121;28;20026;-64
2021/08/17 04:19:26;;;;;;;10.35;2.60;;;12.70;99.90;;;;;;4985845;28;20039;-63
2021/08/17 04:21:52;;;;;;;9.15;2.42;;;12.70;99.90;;;;;;4988433;28;20046;-64
2021/08/17 04:24:18;;;;;;;10.73;2.28;;;12.70;99.90;;;;;;4989332;28;20377;-64
2021/08/17 04:26:44;;;;;;;11.70;2.10;;;12.70;99.90;;;;;;4983634;28;20046;-64
2021/08/17 04:29:10;;;;;;;9.20;2.17;;;12.70;99.90;;;;;;4977185;28;20050;-64
2021/08/17 04:31:36;;;;;;;8.80;2.28;;;12.70;99.90;;;;;;4984175;28;20680;-64
2021/08/17 04:34:03;;;;;;;7.72;2.55;;;12.70;99.90;;;;;;4984045;28;20078;-64
2021/08/17 04:36:28;;;;;;;8.05;1.88;;;12.70;99.90;;;;;;4987808;28;20357;-64
2021/08/17 04:38:54;;;;;;;10.73;2.35;;;12.80;99.90;;;;;;4980926;28;20041;-64
2021/08/17 04:41:20;;;;;;;8.95;2.00;;;12.90;99.90;;;;;;4981099;28;20069;-64
2021/08/17 04:43:48;;;;;;;9.75;2.70;;;13.00;99.90;;;;;;4979869;28;20042;-64
2021/08/17 04:46:14;;;;;;;7.90;2.33;;;13.10;99.90;;;;;;4982628;28;20043;-64
2021/08/17 04:48:40;;;;;;;13.80;2.40;;;13.20;99.90;;;;;;4982204;28;20129;-65
2021/08/17 04:51:06;;;;;;;10.25;2.65;;;13.20;99.90;;;;;;4981561;28;20145;-65
2021/08/17 04:53:32;;;;;;;12.63;2.33;;;13.30;99.90;;;;;;4995795;28;20055;-65
2021/08/17 04:55:57;;;;;;;10.73;2.58;;;13.30;99.90;;;;;;4981738;28;20034;-65
2021/08/17 04:58:23;;;;;;;7.30;2.40;;;13.40;99.90;;;;;;4985992;28;20050;-65
2021/08/17 05:00:50;;;;;;;10.27;2.38;;;13.50;99.90;;;;;;4997890;28;20470;-65
2021/08/17 05:03:16;;;;;;;9.85;2.55;;;13.50;99.90;;;;;;5024879;22;20091;-62
2021/08/17 05:05:41;;;;;;;10.52;2.50;;;13.60;99.90;;;;;;5028991;28;20045;-63
2021/08/17 05:08:09;;;;;;;7.78;2.53;;;13.60;99.90;;;;;;5013036;28;20448;-60
2021/08/17 05:10:35;;;;;;;8.40;2.95;;;13.70;99.90;;;;;;5030575;28;20069;-60
2021/08/17 05:13:02;;;;;;;10.88;2.70;;;13.80;99.90;;;;;;5028478;28;20066;-60
2021/08/17 05:15:29;;;;;;;10.77;2.42;;;13.90;99.90;;;;;;5027365;28;20056;-61
2021/08/17 05:17:55;;;;;;;15.02;2.38;;;14.00;99.90;;;;;;5019447;28;20391;-61
2021/08/17 05:20:21;;;;;;;12.10;2.95;;;14.10;99.90;;;;;;5027669;28;20038;-61
2021/08/17 05:22:47;;;;;;;13.13;2.78;;;14.10;99.90;;;;;;5028797;28;20114;-61
2021/08/17 05:25:13;;;;;;;13.20;2.90;;;14.20;99.90;;;;;;5039865;28;20038;-61
2021/08/17 05:27:39;;;;;;;10.77;2.50;;;14.20;99.90;;;;;;5028021;28;20497;-62
2021/08/17 05:30:06;;;;;;;11.80;3.28;;;14.30;99.90;;;;;;5028651;28;20037;-63
2021/08/17 05:32:32;;;;;;;12.23;2.22;;;14.30;99.90;;;;;;5028707;28;20041;-63
2021/08/17 05:34:57;;;;;;;10.20;2.83;;;14.40;99.90;;;;;;5026455;28;20751;-62
2021/08/17 05:37:23;;;;;;;11.52;2.83;;;14.40;99.90;;;;;;5028738;28;20033;-62
2021/08/17 05:39:49;;;;;;;13.82;2.78;;;14.40;99.90;;;;;;5030852;28;20133;-63
2021/08/17 05:42:15;;;;;;;11.40;2.75;;;14.40;99.90;;;;;;5022117;28;20119;-62
2021/08/17 05:44:42;;;;;;;8.65;3.13;;;14.40;99.90;;;;;;5029197;28;20050;-62
2021/08/17 05:47:10;;;;;;;14.00;3.28;;;14.40;99.90;;;;;;5027390;28;20041;-60
2021/08/17 05:49:41;;;;;;;8.02;2.72;;;14.50;99.90;;;;;;5030040;28;20103;-61
2021/08/17 05:52:12;;;;;;;9.38;3.05;;;14.50;99.90;;;;;;5029440;28;20109;-61
2021/08/17 05:54:39;;;;;;;11.27;3.42;;;14.50;99.90;;;;;;5090928;28;20042;-60
2021/08/17 05:57:05;;;;;;;9.50;3.33;;;14.50;99.90;;;;;;5029764;28;20474;-61
2021/08/17 05:59:32;;;;;;;10.07;2.92;;;14.50;99.90;;;;;;5029384;28;20121;-61
2021/08/17 06:01:59;;;;;;;10.57;2.95;;;14.60;99.90;;;;;;5028185;28;20045;-61
2021/08/17 06:04:26;;;;;;;10.75;3.42;;;14.60;99.90;;;;;;5025969;28;20037;-61
2021/08/17 06:06:52;;;;;;;12.85;3.22;;;14.50;99.90;;;;;;5028034;28;20394;-61
2021/08/17 06:09:21;;;;;;;13.68;4.03;;;14.50;99.90;;;;;;5028804;28;20165;-61
2021/08/17 06:11:48;;;;;;;10.23;3.47;;;14.60;99.90;;;;;;5027803;28;20463;-61
2021/08/17 06:14:14;;;;;;;13.80;3.70;;;14.60;99.90;;;;;;5027018;27;20532;-61
2021/08/17 06:16:41;;;;;;;11.35;3.65;;;14.60;99.90;;;;;;5025817;28;20080;-61
2021/08/17 06:19:06;;;;;;;10.73;3.30;;;14.70;99.90;;;;;;5029528;28;20034;-61
2021/08/17 06:21:34;;;;;;;14.38;4.10;;;14.80;99.90;;;;;;5028964;28;20040;-61
2021/08/17 06:24:00;;;;;;;10.20;3.63;;;15.00;99.90;;;;;;5028310;28;20086;-61
2021/08/17 06:26:26;;;;;;;10.32;4.22;;;15.10;99.90;;;;;;5027012;28;20038;-61
2021/08/17 06:28:52;;;;;;;12.82;4.57;;;15.30;99.90;;;;;;5028984;28;20540;-61
2021/08/17 06:31:22;;;;;;;11.93;4.07;;;15.60;99.90;;;;;;5028754;28;20069;-61
2021/08/17 06:33:49;;;;;;;12.43;4.15;;;15.90;99.90;;;;;;5022356;28;20116;-61
2021/08/17 06:36:14;;;;;;;13.35;4.35;;;16.20;99.90;;;;;;5025230;28;20510;-61
2021/08/17 06:38:40;;;;;;;9.32;3.75;;;16.30;99.90;;;;;;5028558;28;20034;-64
2021/08/17 06:41:06;;;;;;;12.23;4.30;;;16.30;99.90;;;;;;5031346;28;20038;-61
2021/08/17 06:43:31;;;;;;;14.73;4.25;;;16.30;99.90;;;;;;5026374;28;20053;-61
2021/08/17 06:45:57;;;;;;;12.77;4.35;;;16.20;99.90;;;;;;5027015;28;20056;-61
2021/08/17 06:48:22;;;;;;;8.30;3.50;;;16.00;99.90;;;;;;5028013;28;20081;-61
2021/08/17 06:50:49;;;;;;;11.80;4.13;;;16.00;99.90;;;;;;5025680;28;20406;-61
2021/08/17 06:53:14;;;;;;;9.82;3.67;;;15.90;99.90;;;;;;5020760;28;20041;-60
2021/08/17 06:55:40;;;;;;;9.20;3.80;;;15.90;99.90;;;;;;5028646;28;20090;-61
2021/08/17 06:58:11;;;;;;;9.40;3.20;;;15.90;99.90;;;;;;5026905;27;20063;-61
2021/08/17 07:00:37;;;;;;;11.57;4.13;;;15.90;99.90;;;;;;5032800;28;20064;-61
2021/08/17 07:03:04;;;;;;;10.48;3.55;;;16.00;99.90;;;;;;5041783;27;20084;-61
2021/08/17 07:05:30;;;;;;;10.15;3.63;;;16.10;99.90;;;;;;5017723;28;20037;-60
2021/08/17 07:07:55;;;;;;;10.85;3.70;;;16.30;99.90;;;;;;5023703;28;20041;-61
2021/08/17 07:10:21;;;;;;;11.18;3.72;;;16.50;99.90;;;;;;5014736;28;20037;-61
2021/08/17 07:12:47;;;;;;;11.80;3.30;;;16.70;99.90;;;;;;5021504;28;20086;-61
2021/08/17 07:15:12;;;;;;;9.82;3.53;;;16.80;99.90;;;;;;5028085;28;20042;-61
2021/08/17 07:17:38;;;;;;;9.80;3.72;;;17.00;99.90;;;;;;5031356;28;20443;-61
2021/08/17 07:20:04;;;;;;;9.77;3.53;;;17.10;99.90;;;;;;5027581;28;20034;-62
2021/08/17 07:22:30;;;;;;;8.43;3.63;;;17.30;99.90;;;;;;5031211;28;20044;-61
2021/08/17 07:24:55;;;;;;;11.57;3.92;;;17.50;99.90;;;;;;5027690;28;20038;-62
2021/08/17 07:27:21;;;;;;;10.65;3.90;;;17.60;99.90;;;;;;5027807;28;20065;-62
2021/08/17 07:29:47;;;;;;;8.02;3.58;;;17.60;99.90;;;;;;5026154;28;20094;-61
2021/08/17 07:32:12;;;;;;;9.40;4.03;;;17.70;99.90;;;;;;5027663;28;20523;-61
2021/08/17 07:34:38;;;;;;;9.57;3.63;;;17.80;99.90;;;;;;5021107;28;20073;-61
2021/08/17 07:37:03;;;;;;;9.23;3.85;;;18.10;99.90;;;;;;5023240;28;20041;-61
2021/08/17 07:39:30;;;;;;;11.55;3.58;;;18.20;99.90;;;;;;5027395;28;20053;-62
2021/08/17 07:41:55;;;;;;;8.50;3.88;;;18.20;99.90;;;;;;5027624;28;20041;-61
2021/08/17 07:44:21;;;;;;;9.38;3.70;;;18.10;99.90;;;;;;5028904;28;20045;-61
2021/08/17 07:46:47;;;;;;;9.45;3.95;;;18.00;99.90;;;;;;5028063;28;20038;-62
2021/08/17 07:49:12;;;;;;;9.73;4.00;;;18.10;99.90;;;;;;5027574;28;20030;-62
2021/08/17 07:51:38;;;;;;;11.13;3.80;;;18.10;99.90;;;;;;5029655;28;20049;-61
2021/08/17 07:54:04;;;;;;;6.88;4.05;;;18.20;99.90;;;;;;5029141;28;20037;-62
2021/08/17 07:56:30;;;;;;;8.05;4.65;;;18.30;99.90;;;;;;5031896;28;20491;-62
2021/08/17 07:58:55;;;;;;;9.50;4.55;;;18.40;99.90;;;;;;5028019;28;20069;-62
2021/08/17 08:01:21;;;;;;;9.32;4.05;;;18.50;99.90;;;;;;5031244;28;20437;-63
2021/08/17 08:03:46;;;;;;;7.78;4.07;;;18.50;99.90;;;;;;5063164;28;20053;-65
2021/08/17 08:06:13;;;;;;;9.52;4.53;;;18.50;99.90;;;;;;5115059;28;20051;-65
2021/08/17 08:08:41;;;;;;;12.60;4.57;;;18.30;99.90;;;;;;5052424;28;20094;-65
2021/08/17 08:11:07;;;;;;;10.25;3.75;;;18.30;99.90;;;;;;5021464;28;20045;-65
2021/08/17 08:13:33;;;;;;;14.45;4.25;;;18.30;99.90;;;;;;5024376;28;20086;-65
2021/08/17 08:15:58;;;;;;;8.80;4.00;;;18.30;99.90;;;;;;5026897;28;20037;-65
2021/08/17 08:18:24;;;;;;;10.00;5.07;;;18.30;99.90;;;;;;5023897;28;20517;-65
2021/08/17 08:20:50;;;;;;;10.50;3.72;;;18.40;99.90;;;;;;5023110;28;20108;-65
2021/08/17 08:23:15;;;;;;;11.82;6.25;;;18.30;99.90;;;;;;5024131;28;20065;-64
2021/08/17 08:25:41;;;;;;;11.68;5.00;;;18.20;99.90;;;;;;5007631;28;20121;-64
2021/08/17 08:28:08;;;;;;;15.77;5.63;;;18.10;99.90;;;;;;5022389;28;20064;-64
2021/08/17 08:30:34;;;;;;;11.00;4.82;;;18.00;99.90;;;;;;5026862;28;20091;-64
2021/08/17 08:33:00;;;;;;;11.52;5.72;;;17.90;99.90;;;;;;5027277;28;20454;-64
2021/08/17 08:35:25;;;;;;;10.40;5.75;;;17.90;99.90;;;;;;5026804;28;20082;-64
2021/08/17 08:37:51;;;;;;;10.65;5.25;;;17.70;99.90;;;;;;5027354;28;20073;-65
2021/08/17 08:40:17;;;;;;;9.38;5.32;;;17.70;99.90;;;;;;5025056;28;20676;-64
2021/08/17 08:42:46;;;;;;;10.70;6.10;;;17.70;99.90;;;;;;5022834;28;20030;-65
2021/08/17 08:45:11;;;;;;;13.60;5.82;;;17.70;99.90;;;;;;5025522;28;20368;-65
2021/08/17 08:47:40;;;;;;;15.35;6.20;;;17.70;99.90;;;;;;5026060;28;20044;-64
2021/08/17 08:50:07;;;;;;;11.07;6.80;;;17.90;99.90;;;;;;5027752;28;20038;-64
2021/08/17 08:52:33;;;;;;;14.77;6.25;;;17.90;99.90;;;;;;5027834;28;20040;-65
2021/08/17 08:55:02;;;;;;;11.63;6.47;;;18.10;99.90;;;;;;5027208;28;20050;-64
2021/08/17 08:57:28;;;;;;;15.20;6.78;;;18.30;99.90;;;;;;5026352;27;20037;-65
2021/08/17 08:59:54;;;;;;;11.73;6.35;;;18.50;99.90;;;;;;5033388;28;20424;-64
2021/08/17 09:02:19;;;;;;;13.57;7.10;;;18.90;99.90;;;;;;5029729;28;20053;-64
2021/08/17 09:04:56;;;;;;;14.38;6.85;;;19.00;99.90;;;;;;5048683;27;20048;-64
2021/08/17 09:07:53;;;;;;;13.75;6.50;;;19.20;99.90;;;;;;5037430;27;20038;-64
2021/08/17 09:10:22;;;;;;;12.10;7.10;;;19.30;99.90;;;;;;5014007;28;20087;-65
2021/08/17 09:12:49;;;;;;;12.00;7.63;;;19.40;99.90;;;;;;5029299;28;20037;-64
2021/08/17 09:15:30;;;;;;;10.48;6.45;;;19.50;99.90;;;;;;5010050;28;20041;-65
2021/08/17 09:18:10;;;;;;;11.32;6.75;;;19.60;99.90;;;;;;5025488;28;20037;-65
2021/08/17 09:20:39;;;;;;;12.70;7.55;;;19.60;99.90;;;;;;5032953;28;20037;-65
2021/08/17 09:23:33;;;;;;;12.77;7.28;;;19.50;99.90;;;;;;5030335;28;20044;-65
2021/08/17 09:26:25;;;;;;;14.07;7.13;;;19.70;99.90;;;;;;5032924;28;20049;-65
2021/08/17 09:29:00;;;;;;;12.73;7.53;;;19.90;99.90;;;;;;5027741;28;20033;-65
2021/08/17 09:31:37;;;;;;;10.15;7.15;;;19.90;99.90;;;;;;5027525;28;20120;-65
2021/08/17 09:34:04;;;;;;;14.38;7.00;;;19.90;99.90;;;;;;5030781;28;20124;-65
2021/08/17 09:36:37;;;;;;;14.98;8.07;;;19.70;99.90;;;;;;5023400;28;20512;-65
2021/08/17 09:39:03;;;;;;;12.07;7.07;;;19.70;99.90;;;;;;5022625;27;20048;-65
2021/08/17 09:41:30;;;;;;;13.10;7.75;;;19.70;99.90;;;;;;5030769;28;20042;-65
2021/08/17 09:44:08;;;;;;;17.35;8.25;;;19.50;99.90;;;;;;5027890;28;20109;-65
2021/08/17 09:46:38;;;;;;;13.40;7.90;;;19.50;99.90;;;;;;5025624;28;20041;-65
2021/08/17 09:49:26;;;;;;;15.40;8.70;;;19.40;99.90;;;;;;5032691;28;20037;-65
2021/08/17 09:51:53;;;;;;;14.30;7.68;;;19.30;99.90;;;;;;5030344;28;20049;-64
2021/08/17 09:54:24;;;;;;;14.80;8.68;;;19.40;99.90;;;;;;5030512;28;20051;-65
2021/08/17 09:57:01;;;;;;;13.82;8.60;;;19.50;99.90;;;;;;5035318;28;20444;-66
2021/08/17 09:59:28;;;;;;;14.85;9.00;;;19.90;99.90;;;;;;5028164;28;20041;-65
2021/08/17 10:01:55;;;;;;;11.15;7.68;;;20.00;99.90;;;;;;5027044;28;20064;-65
2021/08/17 10:04:22;;;;;;;15.30;8.25;;;20.20;99.90;;;;;;5028768;28;20073;-65
2021/08/17 10:06:50;;;;;;;15.93;8.10;;;20.50;99.80;;;;;;5050242;27;20072;-64
2021/08/17 10:09:17;;;;;;;17.08;8.75;;;20.60;99.40;;;;;;5038143;28;20037;-64
2021/08/17 10:11:43;;;;;;;12.45;7.72;;;20.60;99.70;;;;;;5014100;28;20494;-65
2021/08/17 10:14:13;;;;;;;15.60;7.57;;;20.70;99.70;;;;;;5031940;28;20494;-64
2021/08/17 10:16:41;;;;;;;11.88;7.60;;;20.80;99.50;;;;;;5032817;28;20138;-65
2021/08/17 10:19:08;;;;;;;9.93;7.20;;;20.80;99.20;;;;;;5028575;28;20087;-64
2021/08/17 10:21:37;;;;;;;14.52;7.65;;;20.90;98.50;;;;;;5032349;28;20124;-64
2021/08/17 10:24:40;;;;;;;13.68;8.07;;;20.80;98.50;;;;;;5024840;28;20953;-63
2021/08/17 10:27:26;;;;;;;14.82;8.25;;;20.60;99.40;;;;;;5023798;28;20062;-64
2021/08/17 10:29:57;;;;;;;14.07;8.68;;;20.40;99.90;;;;;;5025507;28;20041;-63
2021/08/17 10:32:43;;;;;;;13.52;8.25;;;20.20;99.90;;;;;;5027554;28;20044;-64
2021/08/17 10:35:52;;;;;;;14.98;8.75;;;20.00;99.90;;;;;;5028090;28;20379;-64
2021/08/17 10:38:17;;;;;;;13.75;8.32;;;19.80;99.90;;;;;;5014674;28;20178;-63
2021/08/17 10:41:02;;;;;;;12.90;8.77;;;19.60;99.90;;;;;;5027981;28;20116;-63
2021/08/17 10:43:27;;;;;;;13.50;8.18;;;19.60;99.90;;;;;;5009983;28;20493;-63
2021/08/17 10:46:07;;;;;;;13.60;7.57;;;19.60;99.90;;;;;;5027113;28;20061;-64
2021/08/17 10:51:31;;;;;;;11.25;8.02;;;19.70;99.90;;;;;;5025613;28;20489;-64
2021/08/17 10:54:03;;;;;;;12.27;8.07;;;19.60;99.90;;;;;;5022437;27;20041;-64
2021/08/17 10:56:34;;;;;;;13.40;7.75;;;19.50;99.90;;;;;;5027713;28;20057;-64
2021/08/17 10:59:00;;;;;;;14.35;8.35;;;19.40;99.90;;;;;;5026059;28;20064;-64
2021/08/17 11:01:35;;;;;;;12.35;7.57;;;19.30;99.90;;;;;;5024850;28;20034;-64
2021/08/17 11:04:12;;;;;;;11.02;7.97;;;19.40;99.90;;;;;;5025998;28;20060;-64
2021/08/17 11:06:43;;;;;;;13.82;7.97;;;19.60;99.90;;;;;;5040674;27;20037;-64
2021/08/17 11:09:14;;;;;;;14.45;7.57;;;19.80;99.90;;;;;;5030013;27;20038;-64
2021/08/17 11:11:45;;;;;;;12.70;7.75;;;20.00;99.90;;;;;;5026083;28;20068;-64
2021/08/17 11:14:20;;;;;;;12.25;7.30;;;20.20;99.90;;;;;;5028285;28;20603;-64
2021/08/17 11:16:58;;;;;;;12.65;7.80;;;20.20;99.90;;;;;;5037853;28;20406;-64
2021/08/17 11:19:26;;;;;;;9.93;7.45;;;20.40;99.90;;;;;;5037628;28;20031;-64
2021/08/17 11:21:54;;;;;;;10.07;6.45;;;20.40;99.90;;;;;;4997513;28;20504;-64
2021/08/17 11:24:30;;;;;;;10.57;7.10;;;20.50;99.00;;;;;;5031452;28;20063;-64
2021/08/17 11:27:10;;;;;;;10.98;6.88;;;20.60;98.90;;;;;;5023770;28;20116;-64
2021/08/17 11:29:42;;;;;;;9.60;6.78;;;20.40;99.00;;;;;;5023481;28;20041;-64
2021/08/17 11:32:26;;;;;;;11.85;7.30;;;20.30;99.70;;;;;;5025913;28;20025;-64
2021/08/17 11:34:52;;;;;;;10.57;6.78;;;20.10;99.80;;;;;;5017218;28;20432;-64
2021/08/17 11:37:18;;;;;;;13.98;7.80;;;20.10;99.90;;;;;;5034370;28;20049;-65
2021/08/17 11:39:55;;;;;;;10.23;6.20;;;20.00;99.90;;;;;;5027403;28;20072;-64
2021/08/17 11:42:22;;;;;;;10.35;6.13;;;19.90;99.90;;;;;;5028970;28;20063;-64
2021/08/17 11:44:56;;;;;;;8.25;6.00;;;19.50;99.80;;;;;;5009881;28;20121;-64
2021/08/17 11:47:22;;;;;;;12.15;6.35;;;19.50;99.90;;;;;;5021127;28;20065;-64
2021/08/17 11:49:51;;;;;;;10.68;6.07;;;19.50;99.60;;;;;;5026955;28;20053;-64
2021/08/17 11:52:33;;;;;;;10.05;6.22;;;19.40;99.80;;;;;;5008259;28;20038;-64
2021/08/17 11:55:12;;;;;;;9.73;6.10;;;19.50;99.90;;;;;;5024389;28;20050;-64
2021/08/17 11:57:52;;;;;;;9.85;6.22;;;19.70;99.90;;;;;;5025823;28;20443;-64
2021/08/17 12:00:20;;;;;;;7.68;5.60;;;20.00;99.90;;;;;;5029983;28;20033;-64
2021/08/17 12:02:50;;;;;;;8.00;5.63;;;20.40;99.10;;;;;;5025648;28;20053;-64
2021/08/17 12:05:19;;;;;;;8.38;5.38;;;20.70;98.70;;;;;;5027817;28;20044;-64
2021/08/17 12:07:50;;;;;;;9.18;5.15;;;20.70;98.20;;;;;;5053112;28;20134;-64
2021/08/17 12:10:28;;;;;;;9.45;5.88;;;21.00;98.70;;;;;;5029122;28;20033;-64
2021/08/17 12:13:13;;;;;;;8.57;5.55;;;21.10;98.40;;;;;;5011016;28;20394;-64
2021/08/17 12:15:49;;;;;;;8.95;5.15;;;21.40;98.10;;;;;;5027183;28;20038;-64
2021/08/17 12:18:22;;;;;;;7.82;5.93;;;21.40;96.80;;;;;;5025244;28;20045;-64
2021/08/17 12:21:08;;;;;;;8.45;5.80;;;21.40;95.70;;;;;;5002310;28;20044;-64
2021/08/17 12:23:43;;;;;;;9.27;5.43;;;21.10;96.60;;;;;;5026619;28;20034;-63
2021/08/17 12:26:14;;;;;;;9.50;5.32;;;21.10;96.60;;;;;;5028869;28;20448;-63
2021/08/17 12:28:41;;;;;;;10.47;5.57;;;21.10;96.80;;;;;;5030174;28;20043;-63
2021/08/17 12:31:19;;;;;;;7.25;4.97;;;20.90;97.30;;;;;;5045888;28;20314;-63
2021/08/17 12:34:04;;;;;;;9.27;5.50;;;20.60;97.60;;;;;;5028938;28;20482;-64
2021/08/17 12:36:41;;;;;;;9.30;5.38;;;20.50;97.70;;;;;;5031699;28;20860;-65
2021/08/17 12:39:29;;;;;;;7.13;5.28;;;20.30;98.30;;;;;;5036500;28;20459;-65
2021/08/17 12:42:02;;;;;;;10.10;4.90;;;20.30;98.70;;;;;;5029850;28;20049;-62
2021/08/17 12:44:32;;;;;;;8.68;5.43;;;20.30;98.80;;;;;;5031761;28;20049;-62
2021/08/17 12:47:03;;;;;;;7.22;4.93;;;20.30;99.70;;;;;;5029305;28;20107;-62
2021/08/17 12:49:39;;;;;;;8.73;4.93;;;20.30;98.80;;;;;;5032367;27;20041;-62